createdAt,value
2022-12-11T00:02:13.513Z,40.87
2022-12-11T00:04:44.709Z,41.34
2022-12-11T00:07:13.108Z,40.87
2022-12-11T00:09:41.283Z,41.04
2022-12-11T00:12:17.853Z,41.29
2022-12-11T00:14:54.231Z,41.37
2022-12-11T00:17:23.298Z,41.16
2022-12-11T00:19:50.426Z,41.08
2022-12-11T00:22:19.984Z,40.98
2022-12-11T00:24:46.715Z,41.36
2022-12-11T00:27:13.772Z,41.28
2022-12-11T00:29:42.457Z,41.24
2022-12-11T00:32:13.731Z,41.13
2022-12-11T00:34:40.820Z,41.38
2022-12-11T00:37:08.425Z,41.31
2022-12-11T00:39:40.183Z,41.38
2022-12-11T00:42:10.071Z,41.19
2022-12-11T00:44:41.559Z,40.91
2022-12-11T00:47:08.490Z,41.24
2022-12-11T00:49:49.513Z,41.47
2022-12-11T00:52:18.083Z,41.19
2022-12-11T00:54:45.253Z,41.12
2022-12-11T00:57:12.844Z,41.17
2022-12-11T00:59:44.780Z,41.29
2022-12-11T01:02:12.418Z,41.02
2022-12-11T01:04:41.077Z,40.77
2022-12-11T01:07:07.894Z,40.85
2022-12-11T01:09:53.675Z,41.18
2022-12-11T01:12:28.553Z,41.14
2022-12-11T01:14:55.654Z,40.56
2022-12-11T01:17:29.115Z,40.84
2022-12-11T01:19:55.752Z,40.56
2022-12-11T01:22:22.986Z,40.56
2022-12-11T01:24:53.190Z,40.63
2022-12-11T01:27:20.341Z,40.57
2022-12-11T01:29:49.521Z,40.72
2022-12-11T01:32:16.270Z,40.25
2022-12-11T01:34:46.038Z,40.35
2022-12-11T01:37:14.185Z,40.68
2022-12-11T01:39:41.121Z,40.54
2022-12-11T01:42:17.583Z,40.44
2022-12-11T01:44:45.558Z,40.44
2022-12-11T01:47:12.566Z,40.20
2022-12-11T01:49:40.420Z,40.21
2022-12-11T01:52:15.284Z,40.28
2022-12-11T01:54:42.072Z,40.32
2022-12-11T01:57:09.408Z,39.98
2022-12-11T01:59:38.356Z,39.97
2022-12-11T02:02:08.728Z,39.92
2022-12-11T02:04:36.581Z,40.01
2022-12-11T02:07:03.802Z,40.30
2022-12-11T02:09:36.090Z,39.83
2022-12-11T02:12:08.888Z,39.83
2022-12-11T02:14:56.395Z,39.77
2022-12-11T02:17:28.586Z,39.69
2022-12-11T02:19:58.034Z,39.57
2022-12-11T02:22:40.620Z,39.61
2022-12-11T02:25:15.035Z,39.83
2022-12-11T02:27:47.826Z,39.62
2022-12-11T02:30:16.247Z,39.83
2022-12-11T02:32:50.355Z,39.58
2022-12-11T02:35:17.750Z,39.74
2022-12-11T02:37:46.885Z,39.92
2022-12-11T02:40:18.116Z,39.59
2022-12-11T02:42:47.103Z,39.38
2022-12-11T02:45:14.622Z,39.42
2022-12-11T02:47:41.983Z,39.35
2022-12-11T02:50:12.482Z,39.58
2022-12-11T02:52:41.658Z,39.27
2022-12-11T02:55:11.290Z,39.48
2022-12-11T02:58:00.365Z,39.15
2022-12-11T03:00:27.262Z,39.49
2022-12-11T03:02:53.855Z,39.41
2022-12-11T03:05:20.651Z,39.30
2022-12-11T03:07:47.394Z,39.60
2022-12-11T03:10:15.785Z,39.49
2022-12-11T03:12:45.443Z,39.37
2022-12-11T03:15:18.221Z,39.20
2022-12-11T03:17:44.784Z,39.35
2022-12-11T03:20:35.028Z,39.31
2022-12-11T03:23:33.676Z,39.33
2022-12-11T03:26:09.093Z,39.29
2022-12-11T03:28:50.406Z,39.04
2022-12-11T03:31:24.152Z,39.23
2022-12-11T03:33:53.752Z,39.12
2022-12-11T03:36:25.849Z,38.86
2022-12-11T03:39:02.211Z,38.88
2022-12-11T03:41:31.665Z,38.97
2022-12-11T03:44:00.134Z,39.03
2022-12-11T03:46:32.155Z,38.95
2022-12-11T03:49:03.012Z,39.09
2022-12-11T03:51:31.105Z,39.15
2022-12-11T03:53:58.475Z,38.83
2022-12-11T03:56:25.694Z,38.96
2022-12-11T03:58:52.305Z,38.90
2022-12-11T04:01:19.326Z,38.86
2022-12-11T04:03:45.935Z,38.85
2022-12-11T04:06:12.553Z,38.85
2022-12-11T04:08:39.423Z,38.95
2022-12-11T04:11:24.327Z,38.80
2022-12-11T04:14:10.932Z,38.75
2022-12-11T04:16:39.088Z,39.10
2022-12-11T04:19:24.238Z,38.74
2022-12-11T04:22:10.028Z,38.66
2022-12-11T04:24:36.622Z,38.67
2022-12-11T04:27:03.282Z,38.82
2022-12-11T04:29:30.358Z,38.59
2022-12-11T04:31:57.012Z,38.71
2022-12-11T04:34:23.901Z,38.61
2022-12-11T04:36:50.816Z,38.37
2022-12-11T04:39:17.894Z,38.49
2022-12-11T04:41:44.475Z,38.52
2022-12-11T04:44:11.231Z,38.59
2022-12-11T04:46:37.930Z,38.61
2022-12-11T04:49:04.680Z,38.67
2022-12-11T04:51:32.132Z,38.43
2022-12-11T04:53:59.448Z,38.46
2022-12-11T04:56:26.549Z,38.44
2022-12-11T04:58:53.225Z,38.31
2022-12-11T05:01:22.489Z,38.50
2022-12-11T05:03:49.900Z,38.16
2022-12-11T05:06:16.821Z,38.31
2022-12-11T05:08:45.118Z,38.09
2022-12-11T05:11:14.856Z,38.18
2022-12-11T05:13:42.170Z,38.24
2022-12-11T05:16:10.279Z,38.32
2022-12-11T05:18:37.083Z,38.18
2022-12-11T05:21:07.353Z,38.12
2022-12-11T05:23:34.917Z,38.16
2022-12-11T05:26:11.569Z,38.16
2022-12-11T05:28:39.269Z,38.37
2022-12-11T05:31:08.878Z,38.20
2022-12-11T05:33:35.627Z,38.34
2022-12-11T05:36:02.944Z,38.36
2022-12-11T05:38:30.406Z,38.33
2022-12-11T05:40:58.819Z,38.25
2022-12-11T05:43:26.509Z,38.32
2022-12-11T05:45:53.160Z,38.47
2022-12-11T05:48:20.038Z,38.46
2022-12-11T05:50:57.436Z,38.47
2022-12-11T05:53:24.257Z,38.36
2022-12-11T05:55:50.885Z,38.36
2022-12-11T05:58:17.460Z,38.58
2022-12-11T06:00:44.567Z,38.56
2022-12-11T06:03:11.870Z,38.68
2022-12-11T06:05:40.016Z,38.88
2022-12-11T06:08:06.704Z,38.76
2022-12-11T06:10:34.075Z,38.74
2022-12-11T06:13:00.781Z,38.78
2022-12-11T06:15:27.335Z,38.77
2022-12-11T06:17:54.022Z,38.75
2022-12-11T06:20:20.539Z,38.66
2022-12-11T06:22:47.341Z,38.62
2022-12-11T06:25:13.999Z,38.61
2022-12-11T06:27:40.726Z,38.45
2022-12-11T06:30:08.066Z,38.31
2022-12-11T06:32:34.700Z,38.46
2022-12-11T06:35:01.263Z,38.71
2022-12-11T06:37:28.546Z,38.45
2022-12-11T06:39:55.082Z,38.52
2022-12-11T06:42:21.697Z,38.87
2022-12-11T06:44:48.360Z,38.65
2022-12-11T06:47:14.941Z,38.43
2022-12-11T06:49:41.531Z,38.50
2022-12-11T06:52:08.188Z,38.06
2022-12-11T06:54:34.729Z,38.55
2022-12-11T06:57:02.064Z,38.55
2022-12-11T06:59:29.272Z,38.37
2022-12-11T07:01:56.448Z,38.50
2022-12-11T07:04:25.339Z,38.64
2022-12-11T07:06:51.934Z,38.31
2022-12-11T07:09:18.498Z,38.78
2022-12-11T07:11:45.269Z,38.50
2022-12-11T07:14:12.035Z,38.31
2022-12-11T07:16:38.724Z,38.43
2022-12-11T07:19:05.452Z,38.34
2022-12-11T07:21:32.195Z,38.33
2022-12-11T07:23:59.073Z,38.46
2022-12-11T07:26:25.833Z,38.31
2022-12-11T07:28:52.681Z,38.47
2022-12-11T07:31:22.224Z,38.31
2022-12-11T07:34:02.602Z,38.36
2022-12-11T07:36:30.313Z,38.15
2022-12-11T07:38:59.053Z,38.04
2022-12-11T07:41:27.706Z,38.07
2022-12-11T07:43:55.056Z,38.16
2022-12-11T07:46:24.297Z,38.19
2022-12-11T07:48:51.100Z,38.07
2022-12-11T07:51:28.793Z,38.03
2022-12-11T07:54:00.600Z,38.14
2022-12-11T07:56:28.333Z,38.21
2022-12-11T07:58:55.095Z,38.27
2022-12-11T08:01:23.920Z,37.67
2022-12-11T08:03:50.835Z,37.13
2022-12-11T08:06:18.300Z,37.29
2022-12-11T08:08:44.874Z,37.17
2022-12-11T08:11:13.876Z,36.83
2022-12-11T08:13:41.219Z,36.92
2022-12-11T08:16:10.270Z,36.88
2022-12-11T08:18:37.822Z,37.06
2022-12-11T08:21:31.221Z,36.93
2022-12-11T08:23:58.026Z,36.95
2022-12-11T08:26:26.928Z,36.86
2022-12-11T08:28:54.281Z,37.05
2022-12-11T08:31:21.755Z,37.02
2022-12-11T08:33:48.987Z,36.61
2022-12-11T08:36:18.373Z,36.81
2022-12-11T08:38:49.776Z,36.55
2022-12-11T08:41:27.341Z,34.77
2022-12-11T08:43:55.167Z,34.47
2022-12-11T08:46:24.144Z,35.17
2022-12-11T08:48:51.042Z,35.18
2022-12-11T08:51:20.724Z,35.49
2022-12-11T08:53:48.654Z,35.63
2022-12-11T08:56:19.271Z,35.76
2022-12-11T08:58:46.363Z,35.75
2022-12-11T09:01:18.506Z,36.10
2022-12-11T09:03:45.826Z,36.01
2022-12-11T09:06:15.629Z,36.15
2022-12-11T09:08:48.705Z,36.01
2022-12-11T09:11:23.967Z,36.42
2022-12-11T09:13:50.746Z,36.44
2022-12-11T09:16:18.874Z,36.49
2022-12-11T09:18:47.421Z,36.51
2022-12-11T09:21:17.216Z,36.71
2022-12-11T09:23:45.574Z,36.83
2022-12-11T09:26:14.511Z,36.58
2022-12-11T09:28:46.200Z,37.05
2022-12-11T09:31:16.262Z,37.01
2022-12-11T09:33:43.192Z,36.92
2022-12-11T09:36:10.076Z,37.09
2022-12-11T09:38:36.774Z,36.79
2022-12-11T09:41:26.919Z,36.71
2022-12-11T09:44:14.810Z,36.92
2022-12-11T09:46:41.848Z,36.68
2022-12-11T09:49:22.788Z,35.27
2022-12-11T09:52:38.059Z,34.12
2022-12-11T09:55:15.167Z,33.19
2022-12-11T09:57:46.944Z,32.20
2022-12-11T10:00:22.534Z,31.97
2022-12-11T10:03:07.170Z,32.83
2022-12-11T10:05:53.706Z,33.11
2022-12-11T10:08:39.067Z,33.18
2022-12-11T10:11:05.511Z,33.58
2022-12-11T10:13:43.710Z,34.53
2022-12-11T10:16:13.006Z,34.39
2022-12-11T10:18:42.771Z,34.94
2022-12-11T10:21:09.783Z,35.17
2022-12-11T10:23:52.612Z,35.74
2022-12-11T10:26:21.799Z,35.35
2022-12-11T10:28:49.028Z,35.52
2022-12-11T10:31:34.708Z,35.78
2022-12-11T10:34:03.695Z,36.07
2022-12-11T10:36:38.775Z,36.29
2022-12-11T10:39:22.250Z,36.25
2022-12-11T10:41:53.754Z,36.36
2022-12-11T10:44:29.808Z,36.73
2022-12-11T10:47:14.964Z,36.40
2022-12-11T10:49:51.795Z,36.40
2022-12-11T10:52:28.072Z,36.89
2022-12-11T10:54:58.771Z,37.17
2022-12-11T10:57:34.367Z,36.93
2022-12-11T11:00:01.662Z,37.38
2022-12-11T11:02:40.395Z,37.67
2022-12-11T11:05:29.290Z,37.60
2022-12-11T11:08:23.636Z,38.02
2022-12-11T11:10:56.597Z,38.07
2022-12-11T11:13:25.092Z,37.88
2022-12-11T11:16:09.796Z,38.10
2022-12-11T11:18:36.567Z,37.67
2022-12-11T11:21:04.098Z,38.16
2022-12-11T11:23:30.816Z,37.88
2022-12-11T11:25:59.885Z,37.85
2022-12-11T11:28:33.350Z,38.15
2022-12-11T11:31:07.162Z,38.04
2022-12-11T11:33:35.470Z,37.97
2022-12-11T11:36:07.250Z,37.94
2022-12-11T11:38:37.776Z,37.68
2022-12-11T11:41:25.614Z,37.59
2022-12-11T11:43:55.682Z,37.75
2022-12-11T11:46:36.637Z,37.37
2022-12-11T11:49:24.444Z,37.62
2022-12-11T11:52:30.809Z,37.86
2022-12-11T11:55:22.040Z,37.51
2022-12-11T11:58:09.408Z,37.86
2022-12-11T12:00:36.073Z,37.47
2022-12-11T12:03:10.183Z,37.61
2022-12-11T12:05:39.980Z,37.58
2022-12-11T12:08:15.756Z,37.50
2022-12-11T12:11:10.652Z,37.53
2022-12-11T12:14:02.682Z,37.61
2022-12-11T12:16:53.782Z,37.18
2022-12-11T12:20:01.889Z,37.50
2022-12-11T12:22:38.667Z,37.44
2022-12-11T12:25:24.353Z,37.08
2022-12-11T12:28:05.014Z,37.37
2022-12-11T12:30:58.497Z,37.26
2022-12-11T12:34:00.422Z,37.15
2022-12-11T12:36:53.316Z,37.21
2022-12-11T12:39:40.337Z,37.04
2022-12-11T12:42:15.638Z,36.83
2022-12-11T12:44:54.928Z,37.19
2022-12-11T12:47:22.286Z,36.91
2022-12-11T12:49:50.066Z,36.99
2022-12-11T12:52:20.805Z,36.96
2022-12-11T12:55:10.020Z,36.95
2022-12-11T12:57:37.953Z,37.07
2022-12-11T13:00:12.585Z,37.00
2022-12-11T13:02:51.690Z,37.05
2022-12-11T13:05:36.827Z,36.97
2022-12-11T13:08:05.453Z,37.17
2022-12-11T13:10:37.251Z,37.07
2022-12-11T13:13:05.856Z,36.98
2022-12-11T13:15:40.906Z,36.85
2022-12-11T13:18:33.433Z,36.96
2022-12-11T13:21:00.971Z,37.08
2022-12-11T13:23:32.919Z,36.95
2022-12-11T13:26:02.174Z,36.91
2022-12-11T13:28:33.233Z,36.86
2022-12-11T13:31:07.710Z,36.56
2022-12-11T13:33:39.225Z,36.47
2022-12-11T13:36:24.986Z,36.42
2022-12-11T13:39:02.937Z,36.50
2022-12-11T13:41:30.396Z,36.52
2022-12-11T13:43:57.525Z,36.30
2022-12-11T13:46:29.062Z,36.33
2022-12-11T13:49:00.946Z,36.46
2022-12-11T13:51:30.021Z,36.49
2022-12-11T13:54:17.369Z,36.33
2022-12-11T13:57:25.951Z,36.15
2022-12-11T13:59:54.754Z,36.35
2022-12-11T14:02:26.817Z,36.29
2022-12-11T14:04:56.826Z,36.13
2022-12-11T14:07:43.133Z,36.20
2022-12-11T14:10:20.200Z,36.22
2022-12-11T14:12:49.432Z,36.30
2022-12-11T14:15:16.261Z,36.22
2022-12-11T14:17:48.497Z,36.25
2022-12-11T14:20:27.867Z,36.34
2022-12-11T14:23:19.748Z,35.79
2022-12-11T14:26:16.738Z,35.94
2022-12-11T14:28:48.571Z,36.18
2022-12-11T14:31:18.212Z,35.92
2022-12-11T14:33:52.204Z,35.76
2022-12-11T14:36:20.880Z,35.97
2022-12-11T14:38:49.918Z,36.04
2022-12-11T14:41:20.189Z,36.02
2022-12-11T14:43:53.183Z,36.08
2022-12-11T14:46:37.479Z,35.96
2022-12-11T14:49:12.151Z,35.73
2022-12-11T14:51:40.854Z,36.26
2022-12-11T14:54:11.205Z,36.07
2022-12-11T14:56:39.627Z,36.15
2022-12-11T14:59:09.073Z,36.36
2022-12-11T15:01:37.450Z,36.29
2022-12-11T15:04:22.419Z,36.17
2022-12-11T15:06:50.204Z,36.21
2022-12-11T15:09:36.119Z,36.40
2022-12-11T15:12:11.802Z,36.53
2022-12-11T15:14:51.549Z,36.35
2022-12-11T15:17:19.099Z,36.09
2022-12-11T15:19:51.586Z,36.41
2022-12-11T15:22:21.044Z,36.47
2022-12-11T15:24:50.456Z,36.65
2022-12-11T15:27:30.761Z,36.61
2022-12-11T15:29:57.626Z,36.37
2022-12-11T15:32:24.734Z,36.75
2022-12-11T15:34:59.645Z,36.96
2022-12-11T15:37:30.636Z,36.98
2022-12-11T15:39:59.372Z,37.03
2022-12-11T15:42:29.473Z,37.14
2022-12-11T15:44:57.534Z,36.99
2022-12-11T15:47:27.349Z,36.93
2022-12-11T15:49:55.535Z,37.03
2022-12-11T15:52:23.235Z,37.03
2022-12-11T15:54:49.877Z,36.65
2022-12-11T15:57:19.571Z,36.70
2022-12-11T15:59:48.770Z,36.80
2022-12-11T16:02:16.363Z,36.83
2022-12-11T16:04:43.158Z,36.79
2022-12-11T16:07:17.990Z,36.68
2022-12-11T16:09:46.311Z,36.65
2022-12-11T16:12:14.234Z,36.68
2022-12-11T16:14:41.939Z,36.89
2022-12-11T16:17:11.183Z,36.81
2022-12-11T16:19:40.143Z,36.96
2022-12-11T16:22:08.850Z,36.91
2022-12-11T16:24:35.889Z,36.95
2022-12-11T16:27:03.051Z,36.89
2022-12-11T16:29:34.288Z,36.70
2022-12-11T16:32:01.128Z,36.79
2022-12-11T16:34:28.784Z,36.84
2022-12-11T16:36:58.314Z,36.63
2022-12-11T16:39:25.024Z,36.33
2022-12-11T16:41:51.604Z,36.54
2022-12-11T16:44:22.030Z,36.38
2022-12-11T16:46:50.774Z,35.65
2022-12-11T16:49:17.708Z,34.79
2022-12-11T16:51:44.532Z,34.91
2022-12-11T16:54:11.891Z,35.22
2022-12-11T16:56:38.607Z,35.43
2022-12-11T16:59:05.450Z,35.47
2022-12-11T17:01:32.389Z,35.63
2022-12-11T17:03:59.304Z,35.86
2022-12-11T17:06:26.259Z,36.06
2022-12-11T17:08:53.337Z,35.91
2022-12-11T17:11:22.295Z,36.17
2022-12-11T17:13:53.971Z,36.01
2022-12-11T17:16:22.236Z,36.44
2022-12-11T17:18:49.123Z,36.24
2022-12-11T17:21:21.219Z,36.45
2022-12-11T17:23:48.623Z,36.47
2022-12-11T17:26:15.705Z,36.47
2022-12-11T17:28:42.385Z,36.60
2022-12-11T17:31:20.324Z,36.52
2022-12-11T17:33:47.559Z,36.52
2022-12-11T17:36:20.151Z,36.50
2022-12-11T17:38:50.497Z,36.64
2022-12-11T17:41:20.704Z,36.49
2022-12-11T17:43:49.456Z,36.57
2022-12-11T17:46:16.313Z,36.54
2022-12-11T17:48:43.040Z,36.56
2022-12-11T17:51:11.160Z,36.51
2022-12-11T17:53:37.871Z,36.45
2022-12-11T17:56:06.580Z,36.38
2022-12-11T17:58:34.813Z,36.30
2022-12-11T18:01:07.876Z,36.45
2022-12-11T18:03:35.199Z,36.21
2022-12-11T18:06:06.053Z,36.63
2022-12-11T18:08:32.944Z,36.25
2022-12-11T18:11:14.160Z,36.21
2022-12-11T18:13:41.444Z,36.29
2022-12-11T18:16:30.854Z,36.42
2022-12-11T18:18:58.125Z,36.35
2022-12-11T18:21:28.029Z,36.41
2022-12-11T18:23:55.364Z,36.15
2022-12-11T18:26:22.293Z,36.52
2022-12-11T18:28:52.005Z,36.58
2022-12-11T18:31:19.609Z,36.55
2022-12-11T18:33:46.901Z,36.33
2022-12-11T18:36:15.654Z,36.48
2022-12-11T18:38:44.238Z,36.20
2022-12-11T18:41:13.283Z,36.33
2022-12-11T18:43:40.470Z,36.48
2022-12-11T18:46:15.711Z,36.22
2022-12-11T18:48:42.692Z,36.35
2022-12-11T18:51:12.081Z,36.13
2022-12-11T18:53:40.439Z,36.43
2022-12-11T18:56:09.073Z,36.14
2022-12-11T18:58:35.806Z,36.29
2022-12-11T19:01:08.066Z,36.39
2022-12-11T19:03:35.003Z,36.29
2022-12-11T19:06:28.561Z,36.26
2022-12-11T19:08:57.274Z,36.51
2022-12-11T19:11:25.702Z,36.40
2022-12-11T19:13:53.691Z,36.45
2022-12-11T19:16:41.679Z,36.59
2022-12-11T19:19:17.808Z,36.43
2022-12-11T19:21:45.547Z,36.40
2022-12-11T19:24:15.288Z,36.20
2022-12-11T19:26:42.723Z,36.21
2022-12-11T19:29:09.565Z,36.26
2022-12-11T19:31:36.830Z,36.20
2022-12-11T19:34:04.008Z,36.42
2022-12-11T19:36:31.715Z,36.21
2022-12-11T19:39:01.815Z,36.60
2022-12-11T19:41:30.440Z,36.50
2022-12-11T19:43:58.124Z,36.09
2022-12-11T19:46:25.489Z,36.38
2022-12-11T19:48:54.117Z,36.24
2022-12-11T19:51:36.392Z,36.29
2022-12-11T19:54:03.205Z,36.24
2022-12-11T19:56:30.030Z,36.10
2022-12-11T19:58:57.488Z,36.05
2022-12-11T20:01:28.729Z,36.33
2022-12-11T20:03:57.777Z,36.03
2022-12-11T20:06:24.916Z,35.96
2022-12-11T20:08:52.257Z,36.42
2022-12-11T20:11:19.300Z,35.85
2022-12-11T20:13:49.355Z,36.38
2022-12-11T20:16:19.962Z,36.09
2022-12-11T20:18:54.475Z,36.20
2022-12-11T20:21:21.164Z,36.21
2022-12-11T20:23:48.150Z,36.20
2022-12-11T20:26:23.717Z,36.08
2022-12-11T20:28:51.795Z,36.08
2022-12-11T20:31:21.106Z,36.08
2022-12-11T20:33:49.392Z,36.22
2022-12-11T20:36:17.560Z,36.30
2022-12-11T20:38:44.368Z,36.36
2022-12-11T20:41:15.512Z,36.21
2022-12-11T20:43:42.351Z,36.19
2022-12-11T20:46:12.356Z,36.19
2022-12-11T20:48:40.417Z,36.11
2022-12-11T20:51:08.236Z,36.30
2022-12-11T20:53:36.857Z,36.01
2022-12-11T20:56:10.145Z,36.05
2022-12-11T20:58:38.349Z,36.05
2022-12-11T21:01:05.254Z,35.95
2022-12-11T21:03:34.505Z,36.41
2022-12-11T21:06:07.020Z,36.33
2022-12-11T21:08:33.569Z,36.35
2022-12-11T21:11:00.174Z,36.29
2022-12-11T21:13:26.699Z,36.09
2022-12-11T21:15:57.189Z,36.49
2022-12-11T21:18:23.814Z,36.33
2022-12-11T21:20:56.007Z,36.42
2022-12-11T21:23:22.791Z,36.43
2022-12-11T21:25:53.342Z,36.35
2022-12-11T21:28:20.702Z,36.26
2022-12-11T21:30:48.181Z,36.41
2022-12-11T21:33:15.250Z,36.32
2022-12-11T21:35:42.186Z,36.03
2022-12-11T21:38:08.930Z,36.15
2022-12-11T21:40:35.780Z,36.35
2022-12-11T21:43:02.508Z,36.27
2022-12-11T21:45:59.965Z,36.13
2022-12-11T21:48:15.771Z,36.44
2022-12-11T21:50:42.857Z,36.33
2022-12-11T21:53:10.170Z,36.28
2022-12-11T21:55:39.939Z,36.41
2022-12-11T21:58:06.948Z,36.10
2022-12-11T22:00:36.271Z,36.34
2022-12-11T22:03:03.066Z,36.47
2022-12-11T22:05:29.694Z,36.35
2022-12-11T22:07:56.358Z,36.29
2022-12-11T22:10:22.936Z,36.41
2022-12-11T22:12:49.594Z,36.51
2022-12-11T22:15:16.302Z,36.47
2022-12-11T22:17:42.857Z,36.22
2022-12-11T22:20:10.014Z,36.10
2022-12-11T22:22:36.642Z,36.42
2022-12-11T22:25:06.899Z,36.13
2022-12-11T22:27:34.149Z,36.29
2022-12-11T22:30:01.028Z,36.20
2022-12-11T22:32:27.792Z,36.35
2022-12-11T22:34:56.248Z,36.42
2022-12-11T22:37:26.421Z,36.93
2022-12-11T22:39:52.973Z,36.71
2022-12-11T22:42:21.092Z,36.45
2022-12-11T22:44:47.649Z,36.80
2022-12-11T22:47:15.939Z,36.75
2022-12-11T22:49:42.569Z,36.58
2022-12-11T22:52:09.985Z,36.74
2022-12-11T22:54:41.301Z,36.99
2022-12-11T22:57:08.728Z,36.79
2022-12-11T22:59:36.640Z,36.78
2022-12-11T23:02:03.790Z,36.54
2022-12-11T23:04:30.711Z,36.93
2022-12-11T23:06:58.013Z,36.80
2022-12-11T23:09:27.220Z,36.55
2022-12-11T23:12:02.392Z,36.57
2022-12-11T23:14:29.337Z,36.45
2022-12-11T23:16:56.258Z,36.85
2022-12-11T23:19:25.663Z,36.62
2022-12-11T23:21:53.045Z,36.59
2022-12-11T23:24:19.677Z,36.55
2022-12-11T23:26:48.003Z,36.19
2022-12-11T23:29:14.724Z,36.67
2022-12-11T23:31:41.278Z,36.37
2022-12-11T23:34:07.928Z,36.46
2022-12-11T23:36:34.499Z,36.50
2022-12-11T23:39:01.066Z,36.53
2022-12-11T23:41:28.202Z,36.26
2022-12-11T23:43:54.928Z,36.32
2022-12-11T23:46:23.042Z,36.40
2022-12-11T23:48:50.556Z,36.24
2022-12-11T23:51:18.567Z,36.29
2022-12-11T23:53:45.748Z,36.16
2022-12-11T23:56:18.983Z,36.14
2022-12-11T23:58:47.412Z,36.06
